Time;durP1;ratioP1;P1;durP2;ratioP2;P2;SDS_P1;SDS_P2;PMS_P1;PMS_P2;Temp;Humidity;BMP_temperature;BMP_pressure;BME280_temperature;BME280_humidity;BME280_pressure;Samples;Min_cycle;Max_cycle;Signal;HPM_P1;HPM_P2
2021/01/13 00:01:40;;;;;;;6.17;4.70;;;1.80;95.90;;;;;;5044049;28;20257;-85
2021/01/13 00:04:09;;;;;;;5.40;4.90;;;1.70;96.00;;;;;;5042088;28;20733;-86
2021/01/13 00:06:35;;;;;;;5.90;5.40;;;1.60;96.60;;;;;;5045615;28;20198;-87
2021/01/13 00:09:02;;;;;;;5.43;4.93;;;1.70;96.80;;;;;;5043549;28;20700;-85
2021/01/13 00:11:28;;;;;;;5.43;4.93;;;1.60;96.90;;;;;;5039227;28;20211;-84
2021/01/13 00:13:55;;;;;;;5.70;4.93;;;1.70;96.70;;;;;;5045124;28;20654;-86
2021/01/13 00:16:22;;;;;;;5.43;4.93;;;1.60;96.60;;;;;;5046747;28;20246;-86
2021/01/13 00:18:49;;;;;;;5.17;4.63;;;1.60;96.80;;;;;;5051082;28;20229;-89
2021/01/13 00:21:16;;;;;;;5.50;4.93;;;1.50;96.10;;;;;;5061946;28;20194;-90
2021/01/13 00:23:43;;;;;;;5.70;5.00;;;1.50;96.50;;;;;;5043792;28;20234;-85
2021/01/13 00:26:10;;;;;;;5.60;5.10;;;1.40;96.60;;;;;;5040224;28;20205;-88
2021/01/13 00:28:37;;;;;;;6.73;4.93;;;1.40;96.70;;;;;;5038848;28;20286;-87
2021/01/13 00:31:03;;;;;;;5.80;5.20;;;1.30;96.70;;;;;;5043031;28;20556;-87
2021/01/13 00:33:31;;;;;;;6.00;5.40;;;1.30;96.80;;;;;;5038308;28;20255;-88
2021/01/13 00:35:57;;;;;;;6.97;5.30;;;1.30;96.60;;;;;;5040275;28;20194;-86
2021/01/13 00:38:24;;;;;;;5.43;4.93;;;1.20;96.90;;;;;;5045924;28;20227;-84
2021/01/13 00:40:50;;;;;;;5.70;5.07;;;1.20;96.90;;;;;;5052479;28;20288;-86
2021/01/13 00:43:17;;;;;;;7.33;5.37;;;1.10;96.90;;;;;;5053103;28;20214;-85
2021/01/13 00:45:43;;;;;;;5.87;5.20;;;1.00;97.40;;;;;;5052243;28;20202;-86
2021/01/13 00:48:10;;;;;;;6.10;5.50;;;1.10;97.20;;;;;;5041637;28;20198;-86
2021/01/13 00:50:38;;;;;;;6.70;5.10;;;1.00;97.10;;;;;;5049209;28;20203;-85
2021/01/13 00:53:04;;;;;;;5.80;5.30;;;1.00;97.40;;;;;;5045010;28;20278;-86
2021/01/13 00:55:31;;;;;;;6.30;5.70;;;0.90;97.20;;;;;;5039260;28;20645;-87
2021/01/13 00:57:57;;;;;;;7.30;6.07;;;0.90;97.30;;;;;;5046856;28;20681;-86
2021/01/13 01:00:24;;;;;;;6.53;5.50;;;1.00;97.50;;;;;;5055041;28;20252;-86
2021/01/13 01:02:50;;;;;;;6.80;6.10;;;1.00;97.40;;;;;;5051122;28;20689;-87
2021/01/13 01:05:16;;;;;;;7.07;6.10;;;1.00;97.30;;;;;;5052666;28;20271;-87
2021/01/13 01:07:45;;;;;;;7.47;6.43;;;0.90;97.20;;;;;;5052470;28;20201;-86
2021/01/13 01:10:18;;;;;;;6.47;5.87;;;0.90;97.70;;;;;;5051037;28;20230;-86
2021/01/13 01:12:44;;;;;;;6.63;5.80;;;0.80;97.50;;;;;;5054506;28;20280;-85
2021/01/13 01:15:12;;;;;;;6.47;5.73;;;0.80;97.90;;;;;;5052865;28;20225;-85
2021/01/13 01:17:38;;;;;;;7.50;6.00;;;0.80;97.70;;;;;;5052854;28;20193;-87
2021/01/13 01:20:06;;;;;;;6.93;5.70;;;0.80;97.40;;;;;;5052631;28;20644;-87
2021/01/13 01:22:32;;;;;;;7.80;5.77;;;0.80;97.80;;;;;;5048031;28;20682;-86
2021/01/13 01:25:00;;;;;;;7.57;6.20;;;0.80;97.60;;;;;;5052492;28;20677;-87
2021/01/13 01:27:26;;;;;;;7.23;5.90;;;0.70;97.60;;;;;;5056579;28;20201;-86
2021/01/13 01:29:53;;;;;;;7.13;6.43;;;0.80;97.80;;;;;;5051701;28;20233;-86
2021/01/13 01:32:19;;;;;;;6.70;5.90;;;0.70;97.70;;;;;;5047516;28;20208;-86
2021/01/13 01:34:46;;;;;;;6.50;5.80;;;0.70;98.10;;;;;;5048252;28;20226;-86
2021/01/13 01:37:12;;;;;;;8.13;6.30;;;0.70;97.80;;;;;;5064185;28;20580;-87
2021/01/13 01:39:38;;;;;;;6.97;6.20;;;0.70;97.90;;;;;;5050706;28;20222;-88
2021/01/13 01:42:06;;;;;;;7.83;6.17;;;0.60;98.00;;;;;;5056273;28;20223;-87
2021/01/13 01:44:32;;;;;;;6.67;5.97;;;0.60;98.00;;;;;;5055682;28;20233;-86
2021/01/13 01:47:04;;;;;;;7.20;5.70;;;0.60;97.70;;;;;;5056811;28;20262;-86
2021/01/13 01:49:32;;;;;;;6.70;5.80;;;0.60;97.40;;;;;;5056354;28;20300;-87
2021/01/13 01:52:06;;;;;;;7.73;5.80;;;0.60;97.30;;;;;;5045234;28;20607;-86
2021/01/13 01:54:35;;;;;;;6.27;5.30;;;0.60;97.20;;;;;;5054897;28;20226;-87
2021/01/13 01:57:04;;;;;;;8.40;6.10;;;0.50;97.30;;;;;;5049445;28;20657;-88
2021/01/13 01:59:41;;;;;;;7.70;6.40;;;0.50;97.50;;;;;;5046366;28;20304;-86
2021/01/13 02:02:10;;;;;;;6.23;5.40;;;0.40;97.70;;;;;;5045658;28;20599;-87
2021/01/13 02:04:42;;;;;;;8.13;6.00;;;0.40;98.00;;;;;;5056390;28;20266;-89
2021/01/13 02:07:30;;;;;;;6.40;5.20;;;0.40;97.80;;;;;;5058630;28;20208;-86
2021/01/13 02:09:58;;;;;;;7.87;6.17;;;0.40;97.80;;;;;;5056116;28;20231;-87
2021/01/13 02:12:29;;;;;;;6.80;5.30;;;0.40;97.80;;;;;;5057652;28;20467;-85
2021/01/13 02:14:58;;;;;;;9.07;5.87;;;0.40;97.30;;;;;;5057283;28;20238;-86
2021/01/13 02:17:38;;;;;;;10.10;5.67;;;0.40;97.20;;;;;;5052663;28;20575;-88
2021/01/13 02:20:13;;;;;;;9.13;5.90;;;0.50;97.30;;;;;;5039553;28;20232;-88
2021/01/13 02:23:03;;;;;;;6.10;5.17;;;0.40;97.10;;;;;;5060078;28;20223;-86
2021/01/13 02:26:06;;;;;;;8.00;5.13;;;0.40;97.20;;;;;;5057071;28;20629;-87
2021/01/13 02:28:55;;;;;;;7.00;5.27;;;0.40;96.90;;;;;;5060719;28;20231;-86
2021/01/13 02:31:41;;;;;;;7.13;4.90;;;0.50;96.60;;;;;;5051505;28;20199;-86
2021/01/13 02:34:17;;;;;;;5.97;5.00;;;0.40;96.60;;;;;;5052555;28;20251;-86
2021/01/13 02:37:17;;;;;;;8.33;5.30;;;0.30;96.70;;;;;;5056693;28;20619;-86
2021/01/13 02:39:46;;;;;;;6.50;5.23;;;0.40;96.70;;;;;;5042505;28;20225;-86
2021/01/13 02:42:21;;;;;;;8.20;5.17;;;0.40;96.30;;;;;;5059085;28;20620;-86
2021/01/13 02:45:04;;;;;;;6.33;5.03;;;0.40;96.20;;;;;;5075023;28;20233;-89
2021/01/13 02:47:51;;;;;;;5.93;4.73;;;0.40;96.50;;;;;;5060495;28;20230;-88
2021/01/13 02:50:23;;;;;;;8.67;5.10;;;0.30;96.10;;;;;;5048344;28;20811;-86
2021/01/13 02:53:05;;;;;;;7.63;4.90;;;0.30;96.10;;;;;;5056711;28;20202;-87
2021/01/13 02:55:37;;;;;;;8.70;4.97;;;0.30;96.20;;;;;;5055263;28;20228;-88
2021/01/13 02:58:06;;;;;;;7.07;5.20;;;0.20;96.30;;;;;;5052121;28;20194;-87
2021/01/13 03:00:35;;;;;;;8.87;5.10;;;0.20;96.40;;;;;;5052768;28;20221;-87
2021/01/13 03:03:02;;;;;;;11.70;5.23;;;0.30;96.40;;;;;;5057504;28;20229;-87
2021/01/13 03:05:29;;;;;;;8.57;5.10;;;0.20;96.40;;;;;;5052884;28;20584;-87
2021/01/13 03:07:56;;;;;;;10.90;4.73;;;0.30;96.50;;;;;;5059404;28;20194;-85
2021/01/13 03:10:25;;;;;;;7.30;4.90;;;0.30;96.30;;;;;;5057149;28;20226;-86
2021/01/13 03:12:58;;;;;;;7.30;5.33;;;0.30;96.20;;;;;;5056632;28;20194;-86
2021/01/13 03:15:27;;;;;;;6.50;4.80;;;0.20;96.10;;;;;;5052513;28;20223;-85
2021/01/13 03:18:05;;;;;;;6.90;5.13;;;0.20;96.10;;;;;;5054493;28;20198;-85
2021/01/13 03:20:39;;;;;;;8.03;5.07;;;0.10;96.40;;;;;;5056204;28;20312;-86
2021/01/13 03:23:12;;;;;;;7.83;4.93;;;0.10;96.60;;;;;;5046064;28;20229;-86
2021/01/13 03:25:47;;;;;;;8.67;5.33;;;0.10;96.40;;;;;;5060721;28;20209;-86
2021/01/13 03:28:16;;;;;;;7.43;5.10;;;0.10;96.70;;;;;;5048933;28;20351;-87
2021/01/13 03:30:46;;;;;;;7.47;4.70;;;0.10;96.70;;;;;;5059588;28;20503;-88
2021/01/13 03:33:44;;;;;;;8.33;5.47;;;0.10;96.70;;;;;;5052631;28;20661;-86
2021/01/13 03:36:19;;;;;;;7.33;4.90;;;0.20;96.30;;;;;;5048910;28;20197;-87
2021/01/13 03:39:02;;;;;;;8.40;5.13;;;0.10;96.50;;;;;;5059287;28;20229;-86
2021/01/13 03:41:35;;;;;;;9.33;5.90;;;0.10;96.70;;;;;;5053919;28;20619;-87
2021/01/13 03:44:09;;;;;;;8.53;5.43;;;0.10;96.70;;;;;;5029660;28;21998;-88
2021/01/13 03:46:36;;;;;;;7.57;5.47;;;0.10;96.60;;;;;;5053784;28;20217;-86
2021/01/13 03:49:04;;;;;;;8.90;5.77;;;0.10;96.60;;;;;;5050923;28;20263;-86
2021/01/13 03:52:00;;;;;;;10.63;5.53;;;0.20;96.50;;;;;;5050832;28;20228;-86
2021/01/13 03:54:33;;;;;;;7.60;5.87;;;0.10;96.40;;;;;;5037150;28;20598;-88
2021/01/13 03:57:01;;;;;;;10.27;5.13;;;0.10;96.50;;;;;;5040377;28;20273;-86
2021/01/13 03:59:43;;;;;;;7.03;5.43;;;0.00;96.60;;;;;;5057388;28;20865;-88
2021/01/13 04:02:16;;;;;;;8.73;5.60;;;0.00;96.60;;;;;;5047670;28;20746;-86
2021/01/13 04:05:14;;;;;;;7.40;5.30;;;0.10;96.70;;;;;;5050169;28;20228;-86
2021/01/13 04:07:43;;;;;;;11.33;5.37;;;0.00;96.60;;;;;;5028271;28;20293;-87
2021/01/13 04:10:12;;;;;;;9.47;5.70;;;0.00;96.60;;;;;;5048210;28;20218;-88
2021/01/13 04:12:55;;;;;;;9.90;6.20;;;-0.10;96.60;;;;;;5051511;28;20198;-86
2021/01/13 04:15:22;;;;;;;8.47;5.93;;;-0.10;96.60;;;;;;5040096;28;20226;-87
2021/01/13 04:17:49;;;;;;;8.50;5.80;;;0.00;96.70;;;;;;5052233;28;20202;-88
2021/01/13 04:20:16;;;;;;;8.53;5.87;;;0.00;96.60;;;;;;5051660;28;20226;-86
2021/01/13 04:22:48;;;;;;;7.93;5.80;;;0.10;96.50;;;;;;5049837;28;20226;-87
2021/01/13 04:25:15;;;;;;;10.90;6.20;;;0.10;96.60;;;;;;5048703;28;20228;-88
2021/01/13 04:27:42;;;;;;;11.47;6.40;;;0.00;96.40;;;;;;5037623;28;20207;-86
2021/01/13 04:30:09;;;;;;;8.53;5.77;;;0.10;96.50;;;;;;5038259;28;20225;-87
2021/01/13 04:32:36;;;;;;;8.40;6.13;;;0.10;96.30;;;;;;5051189;28;20268;-87
2021/01/13 04:35:04;;;;;;;14.93;6.57;;;0.20;96.00;;;;;;5047636;28;20226;-86
2021/01/13 04:37:32;;;;;;;11.43;6.10;;;0.20;96.30;;;;;;5052893;28;20609;-87
2021/01/13 04:40:11;;;;;;;9.47;5.97;;;0.20;96.10;;;;;;5051401;28;20214;-88
2021/01/13 04:42:58;;;;;;;8.00;5.30;;;0.20;96.10;;;;;;5054072;28;20695;-86
2021/01/13 04:45:36;;;;;;;12.70;6.43;;;0.30;96.10;;;;;;5043788;28;20218;-86
2021/01/13 04:48:04;;;;;;;9.67;6.27;;;0.30;95.90;;;;;;5054670;28;20193;-86
2021/01/13 04:50:35;;;;;;;9.33;6.37;;;0.30;96.00;;;;;;5042125;28;20226;-86
2021/01/13 04:53:09;;;;;;;13.27;6.53;;;0.30;95.90;;;;;;5046905;28;20199;-89
2021/01/13 04:55:45;;;;;;;11.60;6.73;;;0.40;95.60;;;;;;5044163;28;20224;-86
2021/01/13 04:58:58;;;;;;;9.80;6.60;;;0.50;95.40;;;;;;5037420;28;20198;-87
2021/01/13 05:01:58;;;;;;;13.47;6.17;;;0.50;95.40;;;;;;5051644;28;20225;-86
2021/01/13 05:04:56;;;;;;;11.33;6.70;;;0.50;95.40;;;;;;5047143;28;20230;-86
2021/01/13 05:07:39;;;;;;;12.17;5.73;;;0.40;95.30;;;;;;5052736;28;20198;-89
2021/01/13 05:10:08;;;;;;;14.40;6.43;;;0.30;95.70;;;;;;5066335;28;20235;-86
2021/01/13 05:12:53;;;;;;;10.47;6.93;;;0.30;95.70;;;;;;5049727;28;20210;-87
2021/01/13 05:15:25;;;;;;;11.53;6.53;;;0.20;95.70;;;;;;5050062;28;20255;-87
2021/01/13 05:18:08;;;;;;;11.73;6.90;;;0.10;96.10;;;;;;5046095;28;20689;-86
2021/01/13 05:20:37;;;;;;;10.90;6.27;;;0.10;96.30;;;;;;5050674;28;20213;-88
2021/01/13 05:23:04;;;;;;;10.87;6.40;;;0.10;96.20;;;;;;5036964;28;20225;-86
2021/01/13 05:25:48;;;;;;;16.77;7.10;;;0.10;96.30;;;;;;5047477;28;20600;-86
2021/01/13 05:28:17;;;;;;;11.90;6.70;;;0.10;96.10;;;;;;5047786;28;20202;-87
2021/01/13 05:30:45;;;;;;;13.57;7.23;;;0.10;96.00;;;;;;5052413;28;20287;-86
2021/01/13 05:33:14;;;;;;;11.47;6.80;;;0.10;96.10;;;;;;5035928;28;20210;-87
2021/01/13 05:35:44;;;;;;;11.73;7.30;;;0.30;96.10;;;;;;5037299;28;20444;-86
2021/01/13 05:38:18;;;;;;;12.30;6.63;;;0.30;95.70;;;;;;5031929;28;20198;-88
2021/01/13 05:40:48;;;;;;;11.80;6.07;;;0.30;95.70;;;;;;5041622;28;20203;-86
2021/01/13 05:43:16;;;;;;;10.73;6.97;;;0.30;95.70;;;;;;5044855;28;20230;-87
2021/01/13 05:45:43;;;;;;;13.63;6.90;;;0.30;95.80;;;;;;5051757;28;20200;-86
2021/01/13 05:48:18;;;;;;;11.00;7.30;;;0.40;95.60;;;;;;5052930;28;20535;-87
2021/01/13 05:50:46;;;;;;;12.47;6.90;;;0.50;95.20;;;;;;5052781;28;20550;-86
2021/01/13 05:53:12;;;;;;;12.03;6.87;;;0.50;94.60;;;;;;5045724;28;20207;-87
2021/01/13 05:55:46;;;;;;;11.90;6.90;;;0.50;94.80;;;;;;5052457;28;20199;-86
2021/01/13 05:58:13;;;;;;;13.33;7.10;;;0.50;95.10;;;;;;5041654;28;20625;-86
2021/01/13 06:00:41;;;;;;;11.87;6.97;;;0.50;94.90;;;;;;5048453;28;20224;-86
2021/01/13 06:03:11;;;;;;;12.87;7.30;;;0.50;95.10;;;;;;5044150;28;20223;-86
2021/01/13 06:05:49;;;;;;;16.40;7.10;;;0.50;95.00;;;;;;5050396;28;20674;-87
2021/01/13 06:08:17;;;;;;;11.47;7.13;;;0.50;95.00;;;;;;5050130;28;20222;-86
2021/01/13 06:10:44;;;;;;;12.63;6.90;;;0.60;94.80;;;;;;5052744;28;20202;-86
2021/01/13 06:13:17;;;;;;;11.53;7.10;;;0.50;94.20;;;;;;5050433;28;20581;-87
2021/01/13 06:15:45;;;;;;;11.60;6.87;;;0.40;94.80;;;;;;5050049;28;20201;-86
2021/01/13 06:18:21;;;;;;;13.17;6.63;;;0.40;95.00;;;;;;5052282;28;20207;-86
2021/01/13 06:20:47;;;;;;;11.90;6.93;;;0.20;94.90;;;;;;5044998;28;20310;-87
2021/01/13 06:23:16;;;;;;;12.73;7.17;;;0.10;95.30;;;;;;5044748;28;20256;-86
2021/01/13 06:25:44;;;;;;;12.43;7.27;;;0.10;95.30;;;;;;5042087;28;20209;-88
2021/01/13 06:28:28;;;;;;;14.23;7.50;;;0.20;95.30;;;;;;5051239;28;20226;-86
2021/01/13 06:31:06;;;;;;;11.40;7.33;;;0.10;95.10;;;;;;5043031;28;20213;-86
2021/01/13 06:33:36;;;;;;;13.60;7.87;;;0.00;95.30;;;;;;5048361;28;20236;-88
2021/01/13 06:36:22;;;;;;;16.47;7.37;;;-0.10;95.70;;;;;;5047549;28;20205;-86
2021/01/13 06:38:55;;;;;;;13.40;7.20;;;-0.10;95.90;;;;;;5049126;28;20736;-86
2021/01/13 06:41:22;;;;;;;15.37;8.30;;;-0.10;96.00;;;;;;5031920;28;20213;-85
2021/01/13 06:44:00;;;;;;;18.33;8.00;;;-0.10;96.30;;;;;;5056325;28;20225;-89
2021/01/13 06:46:28;;;;;;;18.10;8.27;;;-0.10;96.30;;;;;;5046805;28;20249;-89
2021/01/13 06:48:56;;;;;;;15.83;8.13;;;-0.10;96.30;;;;;;5043378;28;20605;-88
2021/01/13 06:51:24;;;;;;;14.40;8.17;;;-0.20;96.30;;;;;;5038057;28;20194;-88
2021/01/13 06:53:51;;;;;;;18.60;8.07;;;-0.20;96.40;;;;;;5039267;28;20323;-90
2021/01/13 06:56:21;;;;;;;17.40;8.43;;;-0.20;96.50;;;;;;5045592;28;20194;-87
2021/01/13 06:58:56;;;;;;;15.37;8.20;;;-0.20;96.60;;;;;;5050995;28;20222;-85
2021/01/13 07:01:23;;;;;;;17.07;8.27;;;-0.20;96.60;;;;;;5045622;28;20211;-91
2021/01/13 07:03:59;;;;;;;16.80;8.50;;;-0.20;96.60;;;;;;5049182;28;20644;-88
2021/01/13 07:06:26;;;;;;;15.30;8.37;;;-0.20;96.60;;;;;;5047774;28;20194;-88
2021/01/13 07:08:53;;;;;;;14.67;7.80;;;-0.20;96.70;;;;;;5052695;28;21763;-89
2021/01/13 07:11:21;;;;;;;15.50;8.00;;;-0.10;96.60;;;;;;5049687;28;20256;-89
2021/01/13 07:13:52;;;;;;;15.00;8.23;;;0.00;96.40;;;;;;5045102;28;20316;-89
2021/01/13 07:16:27;;;;;;;14.23;8.40;;;-0.10;96.30;;;;;;5041260;28;20418;-88
2021/01/13 07:18:56;;;;;;;12.80;7.40;;;0.00;96.40;;;;;;5046829;28;20225;-89
2021/01/13 07:21:36;;;;;;;13.37;7.80;;;0.10;95.90;;;;;;5048781;28;20209;-88
2021/01/13 07:24:11;;;;;;;18.97;7.70;;;0.20;95.70;;;;;;5047104;28;20226;-90
2021/01/13 07:26:39;;;;;;;18.03;7.73;;;0.20;95.80;;;;;;5040815;28;20616;-89
2021/01/13 07:29:06;;;;;;;15.20;7.33;;;0.20;95.60;;;;;;5051738;28;20226;-90
2021/01/13 07:31:33;;;;;;;19.30;7.90;;;0.20;95.60;;;;;;5012815;28;20301;-89
2021/01/13 07:34:09;;;;;;;14.03;8.10;;;0.30;95.50;;;;;;5044842;28;20241;-90
2021/01/13 07:36:39;;;;;;;12.23;7.53;;;0.40;95.00;;;;;;5038243;28;20204;-91
2021/01/13 07:39:07;;;;;;;12.70;7.50;;;0.50;94.10;;;;;;5028480;28;20228;-89
2021/01/13 07:42:11;;;;;;;13.83;7.00;;;0.60;94.00;;;;;;5041347;28;20205;-91
2021/01/13 07:44:42;;;;;;;14.87;7.53;;;0.60;93.90;;;;;;5035129;28;20218;-89
2021/01/13 07:47:27;;;;;;;12.57;6.87;;;0.50;94.10;;;;;;5043318;28;20209;-91
2021/01/13 07:50:08;;;;;;;12.83;7.40;;;0.60;94.10;;;;;;5043211;28;20333;-89
2021/01/13 07:52:42;;;;;;;14.47;7.67;;;0.80;94.20;;;;;;5042368;28;20726;-88
2021/01/13 07:55:16;;;;;;;13.10;7.30;;;0.80;93.90;;;;;;5047111;28;20263;-90
2021/01/13 07:57:47;;;;;;;13.33;7.93;;;0.90;93.70;;;;;;5044087;28;20698;-85
2021/01/13 08:00:24;;;;;;;11.60;7.77;;;1.10;93.20;;;;;;5048597;28;20235;-85
2021/01/13 08:03:55;;;;;;;15.40;7.67;;;1.10;93.30;;;;;;5044720;28;20232;-86
2021/01/13 08:06:34;;;;;;;12.37;6.87;;;1.20;93.00;;;;;;5043048;28;20228;-85
2021/01/13 08:09:14;;;;;;;10.13;6.97;;;1.40;92.40;;;;;;5028875;28;20219;-88
2021/01/13 08:12:35;;;;;;;14.57;7.20;;;1.50;92.40;;;;;;5039575;28;20700;-85
2021/01/13 08:15:44;;;;;;;12.73;6.83;;;1.40;92.40;;;;;;5040480;28;20237;-86
2021/01/13 08:18:49;;;;;;;11.20;7.07;;;1.50;92.30;;;;;;5043809;28;20205;-86
2021/01/13 08:21:24;;;;;;;11.90;7.00;;;1.60;91.70;;;;;;5040684;28;20236;-86
2021/01/13 08:23:59;;;;;;;9.97;6.60;;;1.70;91.60;;;;;;5039625;28;20220;-88
2021/01/13 08:26:27;;;;;;;10.33;7.20;;;1.70;91.50;;;;;;5035356;28;20202;-91
2021/01/13 08:28:58;;;;;;;17.50;6.73;;;1.60;91.30;;;;;;5050850;28;20255;-85
2021/01/13 08:31:28;;;;;;;13.20;7.23;;;1.60;91.30;;;;;;5043721;28;20279;-85
2021/01/13 08:34:05;;;;;;;9.87;6.70;;;1.60;91.40;;;;;;5044157;28;20304;-86
2021/01/13 08:36:32;;;;;;;9.50;7.53;;;1.80;91.10;;;;;;5039569;28;20278;-87
2021/01/13 08:39:08;;;;;;;12.50;6.63;;;1.80;90.90;;;;;;5050316;28;20233;-84
2021/01/13 08:41:36;;;;;;;17.47;6.97;;;1.70;90.80;;;;;;5045640;28;20277;-84
2021/01/13 08:44:11;;;;;;;11.60;6.90;;;1.80;90.90;;;;;;5033016;28;20692;-89
2021/01/13 08:46:47;;;;;;;8.20;6.10;;;2.00;90.90;;;;;;5052138;28;20205;-88
2021/01/13 08:49:22;;;;;;;13.23;6.80;;;2.30;90.10;;;;;;5040076;28;20576;-89
2021/01/13 08:52:11;;;;;;;10.30;6.30;;;2.20;89.70;;;;;;5043369;28;20205;-84
2021/01/13 08:54:38;;;;;;;12.63;6.50;;;2.20;90.10;;;;;;5041919;28;20233;-86
2021/01/13 08:57:08;;;;;;;12.50;5.57;;;2.30;90.10;;;;;;5044967;28;20201;-86
2021/01/13 08:59:39;;;;;;;10.30;6.03;;;2.10;89.40;;;;;;5049207;28;20226;-85
2021/01/13 09:02:08;;;;;;;10.20;6.00;;;2.00;90.40;;;;;;5049799;28;20568;-83
2021/01/13 09:04:52;;;;;;;9.93;5.60;;;2.10;90.80;;;;;;5049499;28;20885;-88
2021/01/13 09:07:22;;;;;;;10.07;5.50;;;2.10;90.40;;;;;;5047863;28;20209;-87
2021/01/13 09:09:57;;;;;;;8.50;5.70;;;2.10;90.30;;;;;;5051207;28;20888;-83
2021/01/13 09:12:33;;;;;;;6.30;4.93;;;2.30;90.10;;;;;;5049249;28;20197;-86
2021/01/13 09:15:19;;;;;;;8.20;4.70;;;2.70;87.50;;;;;;5047277;28;20236;-86
2021/01/13 09:17:56;;;;;;;9.87;5.10;;;3.30;84.00;;;;;;5050018;28;20255;-88
2021/01/13 09:20:26;;;;;;;5.40;4.20;;;4.10;80.70;;;;;;5032003;28;20224;-91
2021/01/13 09:22:57;;;;;;;7.13;4.17;;;4.90;75.40;;;;;;5059183;28;20289;-89
2021/01/13 09:25:26;;;;;;;6.47;3.72;;;6.10;70.90;;;;;;5053449;28;20306;-88
2021/01/13 09:27:55;;;;;;;5.43;4.25;;;6.30;62.10;;;;;;5050252;28;20196;-89
2021/01/13 09:30:36;;;;;;;7.80;4.30;;;6.00;61.60;;;;;;5050774;28;20473;-88
2021/01/13 09:33:21;;;;;;;7.03;4.40;;;5.20;66.60;;;;;;5048775;28;20206;-88
2021/01/13 09:35:58;;;;;;;7.27;4.60;;;4.30;71.80;;;;;;5046584;28;20198;-92
2021/01/13 09:38:28;;;;;;;7.33;4.40;;;3.80;75.50;;;;;;5053202;28;20615;-86
2021/01/13 09:40:57;;;;;;;7.40;5.07;;;3.40;78.50;;;;;;5038132;28;20219;-87
2021/01/13 09:43:31;;;;;;;5.90;4.60;;;3.00;80.60;;;;;;5035308;28;20821;-88
2021/01/13 09:45:59;;;;;;;7.03;5.03;;;2.70;83.00;;;;;;5031906;28;20217;-88
2021/01/13 09:48:26;;;;;;;7.80;4.50;;;2.80;82.50;;;;;;5041477;28;20194;-87
2021/01/13 09:51:01;;;;;;;5.63;4.00;;;2.80;83.10;;;;;;5033287;28;20206;-86
2021/01/13 09:53:33;;;;;;;6.97;4.30;;;3.00;82.40;;;;;;5042765;28;20322;-85
2021/01/13 09:56:05;;;;;;;6.90;4.60;;;2.90;82.10;;;;;;5047363;28;20225;-86
2021/01/13 09:58:42;;;;;;;6.67;4.47;;;2.80;82.50;;;;;;5053240;28;20225;-86
2021/01/13 10:01:14;;;;;;;7.50;4.60;;;2.90;83.00;;;;;;5048662;28;20245;-86
2021/01/13 10:03:43;;;;;;;7.00;4.30;;;2.80;81.50;;;;;;5047241;28;20317;-86
2021/01/13 10:06:17;;;;;;;5.80;4.30;;;2.60;83.30;;;;;;5055462;28;20234;-86
2021/01/13 10:08:44;;;;;;;7.13;4.70;;;2.60;84.00;;;;;;5053110;28;20684;-86
2021/01/13 10:11:11;;;;;;;7.27;4.50;;;2.70;84.40;;;;;;5053389;28;20212;-85
2021/01/13 10:13:42;;;;;;;6.80;4.27;;;2.70;84.20;;;;;;5050843;28;20229;-86
2021/01/13 10:16:11;;;;;;;10.07;4.80;;;2.70;83.40;;;;;;5059450;28;20302;-86
2021/01/13 10:18:51;;;;;;;6.13;4.30;;;2.70;83.40;;;;;;5054872;28;20226;-86
2021/01/13 10:21:19;;;;;;;6.20;4.63;;;2.60;84.30;;;;;;5051125;28;20685;-86
2021/01/13 10:23:47;;;;;;;6.67;4.30;;;2.70;84.50;;;;;;5008276;28;20229;-86
2021/01/13 10:26:14;;;;;;;6.10;4.17;;;2.70;83.20;;;;;;5053203;28;21001;-86
2021/01/13 10:28:41;;;;;;;7.77;4.90;;;2.70;83.60;;;;;;5051169;28;20227;-87
2021/01/13 10:31:11;;;;;;;7.07;3.70;;;2.80;82.80;;;;;;5051532;28;20210;-86
2021/01/13 10:33:48;;;;;;;8.17;4.60;;;2.80;82.80;;;;;;5047842;28;20762;-85
2021/01/13 10:36:45;;;;;;;5.57;4.17;;;2.70;83.60;;;;;;5051373;28;20201;-85
2021/01/13 10:39:21;;;;;;;7.93;4.60;;;2.70;82.90;;;;;;5049796;28;20579;-86
2021/01/13 10:41:49;;;;;;;9.50;4.30;;;2.70;83.70;;;;;;5050530;28;20613;-87
2021/01/13 10:44:18;;;;;;;5.97;4.00;;;2.80;83.30;;;;;;5047690;28;20238;-86
2021/01/13 10:46:56;;;;;;;7.17;3.77;;;2.90;82.20;;;;;;5050651;28;20653;-86
2021/01/13 10:49:31;;;;;;;5.73;3.87;;;3.10;81.30;;;;;;5048432;28;20226;-87
2021/01/13 10:52:04;;;;;;;10.23;4.20;;;3.30;79.40;;;;;;5051974;28;20209;-87
2021/01/13 10:54:32;;;;;;;10.03;4.37;;;3.40;79.50;;;;;;5046705;28;20214;-89
2021/01/13 10:57:02;;;;;;;6.70;3.77;;;3.40;79.50;;;;;;5054913;28;20552;-90
2021/01/13 10:59:29;;;;;;;5.10;3.43;;;3.50;79.50;;;;;;5052153;28;20237;-90
2021/01/13 11:02:02;;;;;;;6.30;4.57;;;3.50;78.60;;;;;;5046471;28;20244;-89
2021/01/13 11:04:35;;;;;;;6.20;3.50;;;3.80;77.00;;;;;;5047490;28;20228;-88
2021/01/13 11:07:07;;;;;;;5.33;3.37;;;3.80;77.20;;;;;;5050930;28;20309;-88
2021/01/13 11:09:35;;;;;;;8.37;4.03;;;3.60;76.80;;;;;;5048215;28;20218;-90
2021/01/13 11:12:04;;;;;;;7.70;3.50;;;3.50;77.80;;;;;;5045668;28;20217;-91
2021/01/13 11:14:46;;;;;;;3.97;3.40;;;3.40;77.10;;;;;;5052663;28;20669;-90
2021/01/13 11:17:14;;;;;;;7.80;3.30;;;3.60;76.90;;;;;;5054004;28;20679;-88
2021/01/13 11:19:45;;;;;;;4.87;3.20;;;3.70;76.20;;;;;;5041702;28;20290;-89
2021/01/13 11:22:13;;;;;;;6.33;3.90;;;3.80;74.90;;;;;;5052654;28;20697;-87
2021/01/13 11:24:45;;;;;;;5.93;3.50;;;3.60;73.80;;;;;;5056962;28;20220;-91
2021/01/13 11:27:14;;;;;;;12.80;3.50;;;3.40;75.70;;;;;;5049662;28;20194;-89
2021/01/13 11:29:44;;;;;;;4.40;3.00;;;3.40;76.60;;;;;;5050835;28;20204;-87
2021/01/13 11:32:15;;;;;;;5.80;3.03;;;3.50;75.40;;;;;;5050237;28;20279;-87
2021/01/13 11:34:47;;;;;;;7.70;3.20;;;3.60;75.10;;;;;;5053929;28;20202;-90
2021/01/13 11:37:48;;;;;;;5.40;3.17;;;3.70;76.00;;;;;;5042965;28;20680;-91
2021/01/13 11:40:40;;;;;;;5.43;2.97;;;3.60;74.50;;;;;;5042646;28;20204;-91
2021/01/13 11:43:41;;;;;;;4.07;3.10;;;3.50;74.20;;;;;;5045868;28;20571;-89
2021/01/13 11:46:18;;;;;;;6.13;2.90;;;3.50;75.00;;;;;;5054862;28;20220;-87
2021/01/13 11:52:22;;;;;;;2.90;2.53;;;3.40;73.00;;;;;;5000195;28;20323;-84
2021/01/13 11:55:11;;;;;;;3.17;2.70;;;3.60;74.30;;;;;;5012849;28;20277;-84
2021/01/13 12:01:00;;;;;;;5.20;2.63;;;3.90;70.80;;;;;;5711255;22;20245;-88
2021/01/13 12:03:36;;;;;;;5.37;2.37;;;3.90;71.00;;;;;;5045566;28;20641;-82
2021/01/13 12:06:07;;;;;;;5.17;2.60;;;3.90;73.00;;;;;;5031699;28;20202;-85
2021/01/13 12:09:12;;;;;;;4.67;2.43;;;4.00;72.30;;;;;;5022610;28;20265;-84
2021/01/13 12:12:04;;;;;;;5.73;2.50;;;4.00;68.70;;;;;;5025369;28;20709;-85
2021/01/13 12:14:42;;;;;;;4.53;3.47;;;3.80;72.30;;;;;;5008945;28;20245;-86
2021/01/13 12:17:08;;;;;;;5.53;3.20;;;3.50;72.60;;;;;;5014319;28;20206;-86
2021/01/13 12:19:40;;;;;;;4.03;2.63;;;3.50;73.30;;;;;;5018921;28;20203;-84
2021/01/13 12:22:16;;;;;;;8.63;2.90;;;3.50;74.10;;;;;;5026625;28;20597;-82
2021/01/13 12:38:41;;;;;;;8.77;3.13;;;3.50;75.10;;;;;;5027019;28;20812;-82
2021/01/13 12:41:07;;;;;;;5.47;3.03;;;3.40;73.30;;;;;;5020487;28;20225;-86
2021/01/13 12:43:36;;;;;;;7.93;2.30;;;3.20;72.10;;;;;;5020474;28;20316;-86
2021/01/13 12:46:04;;;;;;;7.50;2.93;;;3.00;72.70;;;;;;5016991;28;20895;-84
2021/01/13 12:48:32;;;;;;;3.73;1.93;;;2.90;75.10;;;;;;5020101;28;20639;-88
2021/01/13 12:51:02;;;;;;;8.47;3.23;;;2.80;75.90;;;;;;5021714;28;20225;-90
2021/01/13 12:53:30;;;;;;;4.53;2.20;;;2.80;76.20;;;;;;5021802;28;20588;-81
2021/01/13 12:55:57;;;;;;;4.50;2.17;;;2.90;76.10;;;;;;5023869;28;20610;-87
2021/01/13 13:03:49;;;;;;;3.83;2.40;;;2.80;75.50;;;;;;5060339;23;20629;-86
2021/01/13 13:06:25;;;;;;;5.17;2.20;;;3.00;75.80;;;;;;5073486;28;20261;-85
2021/01/13 13:08:52;;;;;;;5.40;2.63;;;3.10;75.50;;;;;;5064371;28;20262;-88
2021/01/13 13:11:30;;;;;;;4.07;2.80;;;3.00;75.50;;;;;;5063865;28;20226;-83
2021/01/13 13:13:59;;;;;;;4.50;2.90;;;3.00;76.80;;;;;;5064448;28;20230;-89
2021/01/13 13:17:08;;;;;;;3.73;2.47;;;3.00;76.60;;;;;;5060443;28;20232;-83
2021/01/13 13:19:34;;;;;;;5.47;2.63;;;3.00;75.40;;;;;;5067209;28;20228;-86
2021/01/13 13:22:07;;;;;;;4.17;2.53;;;2.80;77.20;;;;;;5066466;28;20221;-85
2021/01/13 13:24:35;;;;;;;4.63;2.33;;;3.00;77.20;;;;;;5058663;28;20227;-86
2021/01/13 13:30:25;;;;;;;5.40;2.47;;;3.00;76.40;;;;;;5077743;28;20240;-87
2021/01/13 13:32:52;;;;;;;3.37;2.20;;;2.90;75.80;;;;;;5077875;28;20221;-83
2021/01/13 13:35:22;;;;;;;5.60;2.10;;;2.90;76.90;;;;;;5059264;28;20198;-82
2021/01/13 13:51:47;;;;;;;2.83;2.00;;;3.00;76.90;;;;;;5078694;28;20204;-85
2021/01/13 13:54:15;;;;;;;3.07;2.00;;;3.20;75.80;;;;;;5075721;28;20613;-89
2021/01/13 14:09:26;;;;;;;3.30;2.07;;;3.80;71.50;;;;;;5053966;28;20712;-83
2021/01/13 14:11:53;;;;;;;3.30;2.70;;;3.90;71.30;;;;;;5029223;28;20229;-88
2021/01/13 14:14:20;;;;;;;5.03;2.80;;;4.00;68.70;;;;;;5036050;28;20234;-87
2021/01/13 14:16:46;;;;;;;5.77;2.73;;;3.90;68.60;;;;;;5027328;28;20234;-89
2021/01/13 14:19:15;;;;;;;4.13;2.40;;;3.80;68.50;;;;;;5049192;28;20256;-91
2021/01/13 14:21:42;;;;;;;7.57;2.70;;;3.70;68.90;;;;;;5060420;28;20616;-87